Time;durP1;ratioP1;P1;durP2;ratioP2;P2;SDS_P1;SDS_P2;PMS_P1;PMS_P2;Temp;Humidity;BMP_temperature;BMP_pressure;BME280_temperature;BME280_humidity;BME280_pressure;Samples;Min_cycle;Max_cycle;Signal;HPM_P1;HPM_P2
2024/01/30 00:02:18;;;;;;;20.10;6.97;;;2.40;98.00;;;;;;5053826;28;20881;-68
2024/01/30 00:04:45;;;;;;;17.43;6.90;;;2.30;98.00;;;;;;5053635;28;20495;-67
2024/01/30 00:07:12;;;;;;;14.80;7.20;;;2.30;98.00;;;;;;5053853;28;20459;-68
2024/01/30 00:09:41;;;;;;;19.60;6.70;;;2.30;98.00;;;;;;5036001;28;20452;-68
2024/01/30 00:12:08;;;;;;;16.30;6.50;;;2.30;98.00;;;;;;5035705;28;20961;-68
2024/01/30 00:14:35;;;;;;;18.70;7.10;;;2.20;98.00;;;;;;5053709;28;20481;-67
2024/01/30 00:17:04;;;;;;;15.77;6.83;;;2.20;98.00;;;;;;5053338;28;20459;-67
2024/01/30 00:19:31;;;;;;;16.40;6.87;;;2.30;98.00;;;;;;5053569;28;20453;-69
2024/01/30 00:21:59;;;;;;;15.40;6.43;;;2.30;98.00;;;;;;5053349;28;20486;-67
2024/01/30 00:24:26;;;;;;;16.40;7.63;;;2.20;98.00;;;;;;5036082;28;20452;-67
2024/01/30 00:26:55;;;;;;;15.00;6.37;;;2.20;98.00;;;;;;5053479;28;20457;-67
2024/01/30 00:29:22;;;;;;;14.00;6.20;;;2.20;98.00;;;;;;5053228;28;20478;-68
2024/01/30 00:31:49;;;;;;;17.90;7.30;;;2.00;98.00;;;;;;5053285;28;20489;-68
2024/01/30 00:34:18;;;;;;;13.47;6.33;;;2.10;98.00;;;;;;5052970;28;20942;-68
2024/01/30 00:36:45;;;;;;;15.80;6.67;;;2.10;98.00;;;;;;5053438;28;20458;-69
2024/01/30 00:39:15;;;;;;;15.80;6.40;;;2.10;98.00;;;;;;5053154;28;20460;-67
2024/01/30 00:41:42;;;;;;;14.07;6.30;;;2.20;98.00;;;;;;5051911;28;20483;-68
2024/01/30 00:44:10;;;;;;;15.97;7.20;;;2.20;98.00;;;;;;5053201;28;20459;-67
2024/01/30 00:46:37;;;;;;;14.93;5.87;;;2.10;98.00;;;;;;5035401;28;20450;-67
2024/01/30 00:49:04;;;;;;;13.40;6.00;;;2.10;98.00;;;;;;5053162;28;20926;-67
2024/01/30 00:51:32;;;;;;;17.70;6.23;;;2.00;98.00;;;;;;5052984;28;20447;-67
2024/01/30 00:53:59;;;;;;;12.70;6.17;;;1.90;98.00;;;;;;5053145;28;20515;-66
2024/01/30 00:56:26;;;;;;;18.80;6.30;;;1.80;98.00;;;;;;5051836;28;20458;-68
2024/01/30 00:58:54;;;;;;;15.80;6.50;;;1.70;98.00;;;;;;5052821;28;20462;-67
2024/01/30 01:01:21;;;;;;;15.10;6.50;;;1.70;98.00;;;;;;5052848;28;20489;-68
2024/01/30 01:03:48;;;;;;;15.73;6.33;;;1.80;98.00;;;;;;5052772;28;20450;-68
2024/01/30 01:06:15;;;;;;;14.77;6.50;;;1.90;98.00;;;;;;5051487;28;20789;-67
2024/01/30 01:08:45;;;;;;;14.87;6.43;;;1.90;98.00;;;;;;5052740;28;20461;-68
2024/01/30 01:11:12;;;;;;;13.13;5.87;;;2.00;98.00;;;;;;5051468;28;20451;-68
2024/01/30 01:13:40;;;;;;;14.17;5.97;;;1.90;98.00;;;;;;5051539;28;20802;-70
2024/01/30 01:16:07;;;;;;;18.80;7.20;;;1.90;98.00;;;;;;5051400;28;20451;-69
2024/01/30 01:18:34;;;;;;;13.97;6.20;;;1.80;98.00;;;;;;5052555;28;20455;-67
2024/01/30 01:21:01;;;;;;;13.40;5.67;;;1.80;98.00;;;;;;5052484;28;20490;-67
2024/01/30 01:23:28;;;;;;;12.37;5.40;;;1.80;98.00;;;;;;5052628;28;20486;-67
2024/01/30 01:25:57;;;;;;;18.40;6.33;;;1.90;98.00;;;;;;5052650;28;20462;-67
2024/01/30 01:28:24;;;;;;;15.30;6.57;;;1.80;98.00;;;;;;5052236;28;20458;-68
2024/01/30 01:30:51;;;;;;;14.47;6.30;;;1.80;98.00;;;;;;5052550;28;20465;-67
2024/01/30 01:33:18;;;;;;;15.20;6.70;;;1.80;98.00;;;;;;5052334;28;20455;-68
2024/01/30 01:35:45;;;;;;;16.40;6.57;;;1.80;98.00;;;;;;5052192;28;20446;-67
2024/01/30 01:38:12;;;;;;;14.17;6.07;;;1.80;98.00;;;;;;5051404;28;20466;-68
2024/01/30 01:40:41;;;;;;;11.80;5.50;;;1.80;98.00;;;;;;5052051;28;20486;-68
2024/01/30 01:43:09;;;;;;;15.87;6.40;;;1.70;98.00;;;;;;5052037;28;20513;-67
2024/01/30 01:45:36;;;;;;;14.37;5.93;;;1.60;98.00;;;;;;5051971;28;20447;-67
2024/01/30 01:48:04;;;;;;;13.60;6.43;;;1.70;98.00;;;;;;5050505;28;20454;-68
2024/01/30 01:50:32;;;;;;;20.13;6.43;;;1.70;98.00;;;;;;5051802;28;20509;-66
2024/01/30 01:52:59;;;;;;;13.77;6.50;;;2.00;98.00;;;;;;5051949;28;20491;-67
2024/01/30 01:55:28;;;;;;;11.47;6.00;;;2.10;98.00;;;;;;5051902;28;20454;-67
2024/01/30 01:57:55;;;;;;;15.93;6.60;;;2.10;98.00;;;;;;5050359;28;20448;-67
2024/01/30 02:00:26;;;;;;;16.87;6.50;;;2.00;98.00;;;;;;5051680;28;20446;-69
2024/01/30 02:02:55;;;;;;;15.70;7.10;;;2.00;98.00;;;;;;5051913;28;20447;-68
2024/01/30 02:05:24;;;;;;;18.73;7.40;;;1.80;98.00;;;;;;5051714;28;20480;-67
2024/01/30 02:07:52;;;;;;;15.27;6.50;;;1.80;98.00;;;;;;5051398;28;20457;-67
2024/01/30 02:10:19;;;;;;;17.27;6.23;;;1.80;98.00;;;;;;5051450;28;20534;-68
2024/01/30 02:12:46;;;;;;;13.90;5.77;;;1.80;98.00;;;;;;5051635;28;20565;-68
2024/01/30 02:15:15;;;;;;;13.70;6.23;;;1.80;98.00;;;;;;5033759;28;20941;-66
2024/01/30 02:17:43;;;;;;;13.93;6.20;;;1.90;98.00;;;;;;5051438;28;20454;-66
2024/01/30 02:20:12;;;;;;;11.83;6.20;;;1.80;98.00;;;;;;5051391;28;20955;-67
2024/01/30 02:22:43;;;;;;;14.67;5.73;;;1.80;98.00;;;;;;5051453;28;20486;-69
2024/01/30 02:25:11;;;;;;;13.70;6.30;;;1.70;98.00;;;;;;5051574;28;20544;-68
2024/01/30 02:27:38;;;;;;;14.20;6.53;;;1.80;98.00;;;;;;5033781;28;20928;-68
2024/01/30 02:30:06;;;;;;;15.37;6.23;;;1.70;98.00;;;;;;5051552;28;20826;-66
2024/01/30 02:32:33;;;;;;;14.57;6.17;;;1.70;98.00;;;;;;5051430;28;20442;-69
2024/01/30 02:35:00;;;;;;;14.63;6.20;;;1.80;98.00;;;;;;5051587;28;20466;-67
2024/01/30 02:37:27;;;;;;;14.00;5.90;;;1.80;98.00;;;;;;5051415;28;20453;-66
2024/01/30 02:39:56;;;;;;;15.77;6.70;;;1.90;98.00;;;;;;5033718;28;20469;-67
2024/01/30 02:42:23;;;;;;;17.67;6.90;;;1.80;98.00;;;;;;5051288;28;20513;-68
2024/01/30 02:44:50;;;;;;;12.83;5.97;;;1.60;98.00;;;;;;5033751;28;20447;-66
2024/01/30 02:47:17;;;;;;;17.50;6.20;;;1.50;98.00;;;;;;5033705;28;20449;-67
2024/01/30 02:49:44;;;;;;;16.20;6.60;;;1.50;98.00;;;;;;5051371;28;20453;-68
2024/01/30 02:52:12;;;;;;;15.00;6.30;;;1.50;98.00;;;;;;5054999;28;20454;-67
2024/01/30 02:54:39;;;;;;;13.53;6.30;;;1.60;98.00;;;;;;5055279;28;20457;-67
2024/01/30 02:57:08;;;;;;;12.90;6.17;;;1.60;98.00;;;;;;5054831;28;20465;-69
2024/01/30 02:59:35;;;;;;;14.23;5.93;;;1.70;98.00;;;;;;5055419;28;20446;-68
2024/01/30 03:02:02;;;;;;;14.73;6.00;;;1.60;98.00;;;;;;5055161;28;20536;-66
2024/01/30 03:04:30;;;;;;;13.17;5.57;;;1.50;98.00;;;;;;5055014;28;20465;-67
2024/01/30 03:06:57;;;;;;;15.43;5.67;;;1.40;98.00;;;;;;5055144;28;20467;-66
2024/01/30 03:09:25;;;;;;;15.47;6.37;;;1.40;98.00;;;;;;5055202;28;20857;-67
2024/01/30 03:11:53;;;;;;;12.17;5.90;;;1.40;98.00;;;;;;5055341;28;20449;-68
2024/01/30 03:14:22;;;;;;;14.60;6.20;;;1.40;98.00;;;;;;5037165;28;20460;-66
2024/01/30 03:16:49;;;;;;;13.50;6.20;;;1.40;98.00;;;;;;5054466;28;20803;-67
2024/01/30 03:19:16;;;;;;;13.57;5.57;;;1.60;98.00;;;;;;5054400;28;20497;-67
2024/01/30 03:21:43;;;;;;;14.03;6.57;;;1.40;98.00;;;;;;5054211;28;20846;-68
2024/01/30 03:24:10;;;;;;;14.27;5.37;;;1.30;98.00;;;;;;5054447;28;20450;-68
2024/01/30 03:26:37;;;;;;;12.70;5.80;;;1.20;98.00;;;;;;5054851;28;20830;-67
2024/01/30 03:29:04;;;;;;;12.43;5.53;;;1.20;98.00;;;;;;5054494;28;20446;-67
2024/01/30 03:31:33;;;;;;;10.93;5.53;;;1.10;98.00;;;;;;5054090;28;20458;-67
2024/01/30 03:34:00;;;;;;;13.30;6.53;;;1.20;98.00;;;;;;5054325;28;20468;-67
2024/01/30 03:36:27;;;;;;;13.03;5.70;;;1.20;98.00;;;;;;5054212;28;20458;-69
2024/01/30 03:38:56;;;;;;;14.67;6.00;;;1.10;98.00;;;;;;5054354;28;20908;-67
2024/01/30 03:41:23;;;;;;;14.60;6.60;;;1.00;98.00;;;;;;5054172;28;21797;-67
2024/01/30 03:43:50;;;;;;;11.60;5.43;;;1.10;98.00;;;;;;5036472;28;20457;-68
2024/01/30 03:46:17;;;;;;;14.57;5.77;;;1.00;98.00;;;;;;5054251;28;20446;-67
2024/01/30 03:48:46;;;;;;;15.17;5.83;;;1.00;98.00;;;;;;5053981;28;20449;-68
2024/01/30 03:51:15;;;;;;;12.60;6.20;;;1.00;98.00;;;;;;5054101;28;20499;-68
2024/01/30 03:53:43;;;;;;;14.40;6.40;;;1.00;98.00;;;;;;5054103;28;20454;-68
2024/01/30 03:56:10;;;;;;;13.70;6.07;;;1.00;98.00;;;;;;5054097;28;20458;-69
2024/01/30 03:58:38;;;;;;;10.67;5.60;;;1.00;98.00;;;;;;5053682;28;20450;-68
2024/01/30 04:01:05;;;;;;;12.67;6.23;;;1.00;98.00;;;;;;5053491;28;20449;-68
2024/01/30 04:03:32;;;;;;;13.90;5.90;;;1.00;98.00;;;;;;5035920;28;20462;-67
2024/01/30 04:06:01;;;;;;;16.20;5.70;;;1.10;98.00;;;;;;5053806;28;20481;-68
2024/01/30 04:08:28;;;;;;;16.40;6.27;;;1.00;98.00;;;;;;5053825;28;20453;-66
2024/01/30 04:10:55;;;;;;;12.97;5.87;;;1.10;98.00;;;;;;5036223;28;20456;-68
2024/01/30 04:13:22;;;;;;;15.80;6.00;;;1.20;98.00;;;;;;5053634;28;20525;-67
2024/01/30 04:15:50;;;;;;;18.00;6.73;;;1.20;98.00;;;;;;5053683;28;20465;-68
2024/01/30 04:18:17;;;;;;;12.63;5.93;;;1.10;98.00;;;;;;5035553;28;20454;-68
2024/01/30 04:20:44;;;;;;;13.40;5.50;;;1.00;98.00;;;;;;5053609;28;20462;-67
2024/01/30 04:23:12;;;;;;;16.00;6.43;;;0.90;98.00;;;;;;5053297;28;20481;-70
2024/01/30 04:25:39;;;;;;;11.60;5.67;;;1.00;98.00;;;;;;5053677;28;20453;-72
2024/01/30 04:28:07;;;;;;;13.33;6.00;;;1.10;98.00;;;;;;5053373;28;20449;-70
2024/01/30 04:30:34;;;;;;;13.63;6.30;;;1.10;98.00;;;;;;5053342;28;20533;-70
2024/01/30 04:33:01;;;;;;;10.90;5.40;;;1.10;98.00;;;;;;5035702;28;20947;-69
2024/01/30 04:35:28;;;;;;;12.33;5.60;;;0.90;98.00;;;;;;5035005;28;20454;-69
2024/01/30 04:37:55;;;;;;;24.60;9.17;;;0.90;98.00;;;;;;5053190;28;20512;-71
2024/01/30 04:40:23;;;;;;;12.87;6.00;;;0.80;98.00;;;;;;5053332;28;20966;-70
2024/01/30 04:42:51;;;;;;;14.23;5.90;;;0.80;98.00;;;;;;5053127;28;20888;-70
2024/01/30 04:45:18;;;;;;;11.00;5.30;;;0.90;98.00;;;;;;5053144;28;20811;-71
2024/01/30 04:48:00;;;;;;;10.90;5.50;;;0.90;98.00;;;;;;5053214;28;20453;-70
2024/01/30 04:50:27;;;;;;;16.83;6.93;;;0.90;98.00;;;;;;5052550;28;20943;-70
2024/01/30 04:52:54;;;;;;;13.87;6.27;;;0.80;98.00;;;;;;5053386;28;20492;-69
2024/01/30 04:55:22;;;;;;;12.83;5.80;;;1.00;98.00;;;;;;5035413;28;20441;-71
2024/01/30 04:57:51;;;;;;;14.13;5.90;;;1.10;98.00;;;;;;5052831;28;20446;-70
2024/01/30 05:00:19;;;;;;;14.03;5.73;;;1.20;98.00;;;;;;5053304;28;20482;-70
2024/01/30 05:02:46;;;;;;;14.43;6.17;;;1.20;98.00;;;;;;5035657;28;20862;-70
2024/01/30 05:05:14;;;;;;;20.20;7.53;;;1.00;98.00;;;;;;5052797;28;20844;-69
2024/01/30 05:07:42;;;;;;;17.63;6.93;;;0.90;98.00;;;;;;5034953;28;20481;-70
2024/01/30 05:10:10;;;;;;;12.33;5.80;;;0.90;98.00;;;;;;5052854;28;20465;-69
2024/01/30 05:12:40;;;;;;;13.33;5.47;;;0.80;98.00;;;;;;5052220;28;20515;-69
2024/01/30 05:15:07;;;;;;;13.27;5.67;;;0.70;98.00;;;;;;5052079;28;20941;-70
2024/01/30 05:17:34;;;;;;;15.63;6.80;;;0.80;98.00;;;;;;5052413;28;20450;-70
2024/01/30 05:20:02;;;;;;;14.30;5.57;;;0.80;98.00;;;;;;5052581;28;20469;-70
2024/01/30 05:22:29;;;;;;;8.77;4.70;;;0.80;98.00;;;;;;5052094;28;20490;-70
2024/01/30 05:24:56;;;;;;;12.50;5.60;;;0.80;98.00;;;;;;5052207;28;20457;-69
2024/01/30 05:27:23;;;;;;;11.70;4.93;;;0.80;98.00;;;;;;5052213;28;20458;-71
2024/01/30 05:29:51;;;;;;;12.17;5.60;;;0.80;98.00;;;;;;5052056;28;20453;-70
2024/01/30 05:32:19;;;;;;;13.70;5.87;;;0.80;98.00;;;;;;5018375;28;20458;-69
2024/01/30 05:34:46;;;;;;;14.70;6.17;;;0.80;98.00;;;;;;5034453;28;20502;-69
2024/01/30 05:37:16;;;;;;;11.40;5.93;;;0.80;98.00;;;;;;5051960;28;20933;-67
2024/01/30 05:39:43;;;;;;;11.13;5.63;;;0.90;98.00;;;;;;5035065;28;20446;-68
2024/01/30 05:42:11;;;;;;;18.03;5.20;;;0.80;98.00;;;;;;5052011;28;20485;-66
2024/01/30 05:44:38;;;;;;;15.20;6.60;;;0.80;98.00;;;;;;5051807;28;20958;-66
2024/01/30 05:47:06;;;;;;;13.53;5.90;;;0.70;98.00;;;;;;5052078;28;20469;-68
2024/01/30 05:49:34;;;;;;;13.40;5.67;;;0.60;98.00;;;;;;5051997;28;20816;-69
2024/01/30 05:52:04;;;;;;;14.83;6.10;;;0.70;98.00;;;;;;5052029;28;20512;-67
2024/01/30 05:54:31;;;;;;;14.30;6.23;;;0.80;98.00;;;;;;5034114;28;20947;-67
2024/01/30 05:56:58;;;;;;;11.67;5.90;;;0.90;98.00;;;;;;5051899;28;20450;-69
2024/01/30 05:59:25;;;;;;;13.80;6.23;;;1.00;98.00;;;;;;5051385;28;20446;-69
2024/01/30 06:01:53;;;;;;;12.80;5.80;;;1.00;98.00;;;;;;5051876;28;20490;-69
2024/01/30 06:04:22;;;;;;;13.30;5.33;;;0.80;98.00;;;;;;5051611;28;20828;-68
2024/01/30 06:06:50;;;;;;;16.83;6.27;;;0.80;98.00;;;;;;5051915;28;20464;-70
2024/01/30 06:09:17;;;;;;;12.80;5.17;;;0.60;98.00;;;;;;5051839;28;20449;-70
2024/01/30 06:11:44;;;;;;;18.67;6.17;;;0.70;98.00;;;;;;5051909;28;20785;-70
2024/01/30 06:14:12;;;;;;;10.03;4.93;;;0.70;98.00;;;;;;5051587;28;20450;-69
2024/01/30 06:16:39;;;;;;;12.57;6.20;;;0.80;98.00;;;;;;5051878;28;20460;-71
2024/01/30 06:19:07;;;;;;;15.93;6.87;;;0.80;98.00;;;;;;5033935;28;20441;-71
2024/01/30 06:21:36;;;;;;;17.43;7.40;;;0.80;98.00;;;;;;5051547;28;20453;-70
2024/01/30 06:24:03;;;;;;;15.67;7.07;;;0.60;98.00;;;;;;5051786;28;20532;-69
2024/01/30 06:26:31;;;;;;;15.30;7.30;;;0.60;98.00;;;;;;5055530;28;20778;-69
2024/01/30 06:28:58;;;;;;;17.13;7.60;;;0.70;98.00;;;;;;5055652;28;20446;-69
2024/01/30 06:31:25;;;;;;;18.33;8.27;;;0.80;98.00;;;;;;5055928;28;20523;-70
2024/01/30 06:33:52;;;;;;;19.50;7.30;;;0.90;98.00;;;;;;5055822;28;20460;-70
2024/01/30 06:36:19;;;;;;;13.67;6.93;;;1.00;98.00;;;;;;5055708;28;20811;-70
2024/01/30 06:38:49;;;;;;;16.83;7.00;;;0.80;98.00;;;;;;5055864;28;20461;-70
2024/01/30 06:41:16;;;;;;;18.60;7.37;;;0.80;98.00;;;;;;5055659;28;20453;-70
2024/01/30 06:43:45;;;;;;;12.90;6.80;;;0.90;98.00;;;;;;5037787;28;20516;-70
2024/01/30 06:46:12;;;;;;;15.40;6.13;;;0.90;98.00;;;;;;5055629;28;20997;-70
2024/01/30 06:48:41;;;;;;;14.07;6.30;;;0.90;98.00;;;;;;5055561;28;20835;-70
2024/01/30 06:51:09;;;;;;;15.30;6.37;;;0.80;98.00;;;;;;5055844;28;20544;-70
2024/01/30 06:53:36;;;;;;;15.87;7.00;;;0.80;98.00;;;;;;5055735;28;20453;-71
2024/01/30 06:56:08;;;;;;;19.13;7.00;;;0.70;98.00;;;;;;5055475;28;20848;-71
2024/01/30 06:58:36;;;;;;;16.57;7.03;;;0.70;98.00;;;;;;5055402;28;20481;-69
2024/01/30 07:01:04;;;;;;;14.40;6.70;;;0.60;98.00;;;;;;5055355;28;20446;-67
2024/01/30 07:03:31;;;;;;;18.00;7.13;;;0.50;98.00;;;;;;5055062;28;20498;-67
2024/01/30 07:05:58;;;;;;;16.40;6.60;;;0.40;98.00;;;;;;5055101;28;20461;-67
2024/01/30 07:08:25;;;;;;;16.90;7.27;;;0.50;98.00;;;;;;5055324;28;21113;-67
2024/01/30 07:10:55;;;;;;;16.00;6.87;;;0.70;98.00;;;;;;5055062;28;20454;-68
2024/01/30 07:13:23;;;;;;;16.00;6.50;;;0.70;98.00;;;;;;5054893;28;20442;-67
2024/01/30 07:15:50;;;;;;;13.97;6.90;;;0.80;98.00;;;;;;5054921;28;20825;-68
2024/01/30 07:18:17;;;;;;;14.30;6.60;;;0.80;98.00;;;;;;5054634;28;20449;-68
2024/01/30 07:20:47;;;;;;;16.93;7.33;;;0.70;98.00;;;;;;5055150;28;20458;-68
2024/01/30 07:23:16;;;;;;;16.67;7.00;;;0.70;98.00;;;;;;5054817;28;20516;-68
2024/01/30 07:25:43;;;;;;;17.00;7.17;;;0.60;98.00;;;;;;5054730;28;20453;-68
2024/01/30 07:28:11;;;;;;;17.20;6.40;;;0.70;98.00;;;;;;5054608;28;20461;-68
2024/01/30 07:30:40;;;;;;;17.10;6.90;;;0.80;98.00;;;;;;5054725;28;20507;-67
2024/01/30 07:33:08;;;;;;;13.97;6.47;;;0.80;98.00;;;;;;5054602;28;20450;-67
2024/01/30 07:35:35;;;;;;;17.00;7.53;;;0.90;98.00;;;;;;5054238;28;20492;-67
2024/01/30 07:38:03;;;;;;;17.50;7.33;;;1.00;98.00;;;;;;5053833;28;20865;-68
2024/01/30 07:40:30;;;;;;;18.13;7.30;;;1.10;98.00;;;;;;5054167;28;20477;-69
2024/01/30 07:42:57;;;;;;;18.67;6.73;;;1.10;98.00;;;;;;5054336;28;20484;-68
2024/01/30 07:45:25;;;;;;;17.10;7.80;;;1.10;98.00;;;;;;5054110;28;21018;-68
2024/01/30 07:47:53;;;;;;;13.43;6.33;;;1.10;98.00;;;;;;5054383;28;20450;-67
2024/01/30 07:50:20;;;;;;;17.53;7.10;;;1.20;98.00;;;;;;5054047;28;20457;-68
2024/01/30 07:52:51;;;;;;;15.30;6.53;;;1.30;98.00;;;;;;5054300;28;20499;-69
2024/01/30 07:58:38;;;;;;;20.17;7.93;;;1.60;98.00;;;;;;5033732;28;20461;-67
2024/01/30 08:01:05;;;;;;;21.60;8.90;;;1.60;98.00;;;;;;5054163;28;20453;-67
2024/01/30 08:03:34;;;;;;;21.50;7.80;;;1.50;98.00;;;;;;5053982;28;20539;-68
2024/01/30 08:06:01;;;;;;;17.80;8.43;;;1.50;98.00;;;;;;5054001;28;20470;-67
2024/01/30 08:08:29;;;;;;;19.23;7.60;;;1.60;98.00;;;;;;5054045;28;20457;-67
2024/01/30 08:10:56;;;;;;;14.93;6.77;;;1.70;98.00;;;;;;5054197;28;20455;-68
2024/01/30 08:13:23;;;;;;;18.80;7.00;;;1.70;98.00;;;;;;5053591;28;20484;-68
2024/01/30 08:15:50;;;;;;;16.20;6.90;;;1.80;98.00;;;;;;5053398;28;20515;-68
2024/01/30 08:18:17;;;;;;;19.27;7.37;;;1.80;98.00;;;;;;5053103;28;20450;-67
2024/01/30 08:20:46;;;;;;;19.20;7.70;;;1.90;98.00;;;;;;5053997;28;21110;-67
2024/01/30 08:23:13;;;;;;;16.00;7.37;;;2.00;98.00;;;;;;5053693;28;20486;-65
2024/01/30 08:25:41;;;;;;;17.20;8.17;;;2.10;98.00;;;;;;5053911;28;20451;-64
2024/01/30 08:28:09;;;;;;;17.37;7.73;;;2.10;98.00;;;;;;5035953;28;20470;-66
2024/01/30 08:30:39;;;;;;;16.07;6.63;;;2.10;98.00;;;;;;5053619;28;20450;-65
2024/01/30 08:33:06;;;;;;;14.83;6.77;;;2.10;98.00;;;;;;5053654;28;20450;-65
2024/01/30 08:35:36;;;;;;;17.90;7.27;;;2.10;98.00;;;;;;5053471;28;20930;-65
2024/01/30 08:38:04;;;;;;;19.00;7.97;;;2.00;98.00;;;;;;5053853;28;20940;-65
2024/01/30 08:40:31;;;;;;;16.00;6.30;;;2.20;98.00;;;;;;5053618;28;20458;-63
2024/01/30 08:42:59;;;;;;;13.87;6.97;;;2.50;98.00;;;;;;5053917;28;20797;-69
2024/01/30 08:45:26;;;;;;;24.17;9.30;;;2.60;98.00;;;;;;5053502;28;20442;-63
2024/01/30 08:47:55;;;;;;;19.23;8.20;;;2.60;98.00;;;;;;5053194;28;20463;-63
2024/01/30 08:50:22;;;;;;;25.53;8.77;;;2.50;98.00;;;;;;5052967;28;20459;-65
2024/01/30 08:52:50;;;;;;;20.80;8.33;;;2.60;98.00;;;;;;5053164;28;20464;-63
2024/01/30 08:55:18;;;;;;;19.07;7.10;;;3.00;98.00;;;;;;5052540;28;20456;-63
2024/01/30 08:57:45;;;;;;;14.70;6.20;;;3.20;98.00;;;;;;5052994;28;20448;-63
2024/01/30 09:00:14;;;;;;;24.10;9.97;;;3.40;98.00;;;;;;5052914;28;20452;-62
2024/01/30 09:02:41;;;;;;;23.80;9.53;;;3.60;98.00;;;;;;5053119;28;21108;-61
2024/01/30 09:05:09;;;;;;;15.80;7.70;;;3.90;98.00;;;;;;5052940;28;20468;-63
2024/01/30 09:07:36;;;;;;;23.23;10.30;;;4.50;98.00;;;;;;5051690;28;20450;-63
2024/01/30 09:10:03;;;;;;;22.73;7.20;;;4.50;98.00;;;;;;5052710;28;20457;-63
2024/01/30 09:12:32;;;;;;;20.50;8.90;;;4.50;98.00;;;;;;5052626;28;20549;-63
2024/01/30 09:14:59;;;;;;;23.20;9.20;;;4.50;98.00;;;;;;5052956;28;20449;-63
2024/01/30 09:17:26;;;;;;;26.00;9.63;;;4.50;98.00;;;;;;5052654;28;20442;-63
2024/01/30 09:19:55;;;;;;;23.53;9.57;;;4.40;98.00;;;;;;5052631;28;20459;-64
2024/01/30 09:22:22;;;;;;;26.50;10.13;;;4.20;98.00;;;;;;5052437;28;20524;-64
2024/01/30 09:24:49;;;;;;;21.47;9.23;;;4.20;98.00;;;;;;5052534;28;21017;-64
2024/01/30 09:27:16;;;;;;;24.20;9.93;;;4.30;98.00;;;;;;5052539;28;20459;-63
2024/01/30 09:29:44;;;;;;;22.90;9.53;;;4.30;98.00;;;;;;5052513;28;20460;-63
2024/01/30 09:32:14;;;;;;;22.07;9.23;;;4.30;98.00;;;;;;5052326;28;20456;-63
2024/01/30 09:34:42;;;;;;;23.97;9.77;;;4.50;98.00;;;;;;5051077;28;20466;-63
2024/01/30 09:37:08;;;;;;;19.67;9.13;;;4.60;98.00;;;;;;5052416;28;20505;-63
2024/01/30 09:39:35;;;;;;;20.93;9.43;;;4.60;98.00;;;;;;5051004;28;20467;-64
2024/01/30 09:42:11;;;;;;;21.37;9.00;;;4.70;98.00;;;;;;5052301;28;20472;-63
2024/01/30 09:44:42;;;;;;;24.70;10.90;;;4.70;98.00;;;;;;5052145;28;20486;-63
2024/01/30 09:47:11;;;;;;;18.07;8.73;;;4.90;98.00;;;;;;5052153;28;20454;-64
2024/01/30 09:49:40;;;;;;;21.87;9.53;;;4.90;98.00;;;;;;5052169;28;20450;-64
2024/01/30 09:52:07;;;;;;;18.57;8.90;;;5.00;98.00;;;;;;5052035;28;20466;-64
2024/01/30 09:54:36;;;;;;;23.80;9.70;;;5.10;98.00;;;;;;5051908;28;20465;-64
2024/01/30 09:57:03;;;;;;;25.73;10.20;;;5.20;98.00;;;;;;5052128;28;20456;-63
2024/01/30 09:59:30;;;;;;;26.07;10.00;;;5.30;98.00;;;;;;5051640;28;20939;-63
2024/01/30 10:01:58;;;;;;;24.33;10.00;;;5.40;98.00;;;;;;5052079;28;20463;-63
2024/01/30 10:04:27;;;;;;;21.60;9.10;;;5.50;98.00;;;;;;5051728;28;20498;-64
2024/01/30 10:06:54;;;;;;;19.57;9.67;;;5.50;98.00;;;;;;5050886;28;20460;-63
2024/01/30 10:09:21;;;;;;;21.10;9.00;;;5.50;98.00;;;;;;5035527;28;20476;-64
2024/01/30 10:11:49;;;;;;;29.00;14.30;;;5.50;98.00;;;;;;5050626;28;20445;-64
2024/01/30 10:14:20;;;;;;;22.10;11.10;;;5.70;98.00;;;;;;5050877;28;20830;-63
2024/01/30 10:16:47;;;;;;;24.63;9.30;;;5.80;98.00;;;;;;5051483;28;20453;-63
2024/01/30 10:19:14;;;;;;;21.63;9.83;;;5.80;98.00;;;;;;5051273;28;20498;-64
2024/01/30 10:21:43;;;;;;;24.07;9.93;;;5.90;98.00;;;;;;5051824;28;20485;-64
2024/01/30 10:24:12;;;;;;;22.20;9.43;;;6.00;98.00;;;;;;5050489;28;21050;-63
2024/01/30 10:26:39;;;;;;;22.70;9.80;;;6.10;98.00;;;;;;5050628;28;20553;-64
2024/01/30 10:29:07;;;;;;;20.87;9.47;;;6.30;98.00;;;;;;5051466;28;20460;-64
2024/01/30 10:31:34;;;;;;;19.67;9.30;;;6.50;98.00;;;;;;5051999;28;20797;-63
2024/01/30 10:34:01;;;;;;;25.10;10.20;;;6.60;98.00;;;;;;5034182;28;20454;-63
2024/01/30 10:36:30;;;;;;;24.77;10.33;;;6.60;98.00;;;;;;5051310;28;20454;-63
2024/01/30 10:39:00;;;;;;;23.63;10.17;;;6.60;98.00;;;;;;5051722;28;20545;-63
2024/01/30 10:41:28;;;;;;;23.20;10.30;;;6.70;98.00;;;;;;5051670;28;20518;-63
2024/01/30 10:44:10;;;;;;;27.10;10.57;;;6.70;98.00;;;;;;5033493;28;20493;-63
2024/01/30 10:46:39;;;;;;;21.57;9.20;;;6.80;98.00;;;;;;5051470;28;20477;-64
2024/01/30 10:49:07;;;;;;;20.50;9.43;;;6.90;98.00;;;;;;5051500;28;20970;-64
2024/01/30 10:51:37;;;;;;;22.77;10.10;;;7.00;98.00;;;;;;5034003;28;20449;-64
2024/01/30 10:54:09;;;;;;;23.23;10.20;;;7.20;98.00;;;;;;5051348;28;20468;-64
2024/01/30 10:56:37;;;;;;;21.80;9.90;;;7.20;98.00;;;;;;5051314;28;20514;-64
2024/01/30 10:59:05;;;;;;;22.97;10.43;;;7.30;98.00;;;;;;5051270;28;20478;-64
2024/01/30 11:01:33;;;;;;;24.03;10.17;;;7.40;98.00;;;;;;5051296;28;20952;-64
2024/01/30 11:04:00;;;;;;;22.83;10.30;;;7.60;98.00;;;;;;5051406;28;20496;-64
2024/01/30 11:06:27;;;;;;;23.63;10.30;;;7.70;98.00;;;;;;5051053;28;20836;-63
2024/01/30 11:11:52;;;;;;;25.20;10.07;;;7.90;98.00;;;;;;5151176;27;20537;-63
2024/01/30 11:14:25;;;;;;;20.20;10.20;;;8.10;98.00;;;;;;5130093;27;20538;-63
2024/01/30 11:16:52;;;;;;;23.33;10.47;;;8.20;98.00;;;;;;5130151;28;20496;-63
2024/01/30 11:19:25;;;;;;;21.33;10.43;;;8.40;98.00;;;;;;5130097;28;20448;-63
2024/01/30 11:21:57;;;;;;;22.13;10.23;;;8.50;98.00;;;;;;5130136;28;20495;-63
2024/01/30 11:24:24;;;;;;;20.97;9.90;;;8.60;98.00;;;;;;5130109;28;20800;-63
2024/01/30 11:26:57;;;;;;;22.50;10.77;;;8.60;98.00;;;;;;5130253;28;20461;-63
2024/01/30 11:29:26;;;;;;;21.97;10.07;;;8.70;98.00;;;;;;5129743;27;20484;-63
2024/01/30 11:31:54;;;;;;;25.80;10.70;;;8.80;98.00;;;;;;5130110;28;20461;-63
2024/01/30 11:34:22;;;;;;;26.67;10.63;;;8.90;98.00;;;;;;5129811;28;20449;-63
2024/01/30 11:36:55;;;;;;;27.33;11.77;;;9.00;98.00;;;;;;5130151;28;20859;-63
2024/01/30 11:39:23;;;;;;;28.37;11.70;;;9.10;98.00;;;;;;5129915;27;20506;-63
2024/01/30 11:41:53;;;;;;;22.40;10.93;;;9.00;98.00;;;;;;5129691;28;20443;-63
2024/01/30 11:44:21;;;;;;;23.13;10.80;;;9.00;98.00;;;;;;5129762;28;20464;-63
2024/01/30 11:46:49;;;;;;;24.73;10.90;;;9.00;98.00;;;;;;5129840;28;20510;-63
2024/01/30 11:49:17;;;;;;;26.33;10.90;;;9.00;98.00;;;;;;5129655;28;20787;-63
2024/01/30 11:51:44;;;;;;;32.83;11.40;;;9.10;98.00;;;;;;5129642;28;20481;-63
2024/01/30 11:54:11;;;;;;;27.30;10.67;;;9.20;98.00;;;;;;5129442;28;20514;-63
2024/01/30 11:56:38;;;;;;;23.27;10.17;;;9.40;98.00;;;;;;5129646;27;20473;-63
2024/01/30 11:59:07;;;;;;;24.50;10.70;;;9.40;98.00;;;;;;5129417;28;20870;-63
2024/01/30 12:01:35;;;;;;;24.97;11.20;;;9.50;98.00;;;;;;5128229;28;21005;-63
2024/01/30 12:04:08;;;;;;;23.67;10.60;;;9.60;98.00;;;;;;5129308;28;20988;-63
2024/01/30 12:06:35;;;;;;;22.90;10.50;;;9.60;98.00;;;;;;5129314;28;20453;-63
2024/01/30 12:09:04;;;;;;;25.63;11.87;;;9.60;98.00;;;;;;5129154;28;20458;-63
2024/01/30 12:11:32;;;;;;;27.60;11.40;;;9.70;98.00;;;;;;5129268;27;20572;-63
2024/01/30 12:13:59;;;;;;;24.77;10.33;;;9.80;98.00;;;;;;5129246;28;20909;-63
2024/01/30 12:16:27;;;;;;;24.30;10.97;;;9.80;98.00;;;;;;5129339;28;20960;-63
2024/01/30 12:19:02;;;;;;;22.60;10.93;;;9.80;98.00;;;;;;5127919;28;20762;-63
2024/01/30 12:21:30;;;;;;;27.47;11.97;;;10.00;98.00;;;;;;5125409;28;20507;-63
2024/01/30 12:23:58;;;;;;;26.97;12.10;;;10.20;98.00;;;;;;5115680;27;20470;-64
2024/01/30 12:26:26;;;;;;;24.17;11.77;;;10.20;98.00;;;;;;5115385;28;20509;-63
2024/01/30 12:28:57;;;;;;;29.03;12.03;;;10.30;98.00;;;;;;5115078;28;20485;-63
2024/01/30 12:31:29;;;;;;;23.03;11.60;;;10.40;98.00;;;;;;5115100;28;20486;-63
2024/01/30 12:33:56;;;;;;;26.10;11.67;;;10.50;98.00;;;;;;5114910;28;20456;-63
2024/01/30 12:36:24;;;;;;;26.00;11.33;;;10.60;98.00;;;;;;5114762;28;20506;-63
2024/01/30 12:38:51;;;;;;;22.80;11.77;;;10.70;98.00;;;;;;5115128;28;20842;-63
2024/01/30 12:41:18;;;;;;;22.73;10.77;;;10.80;98.00;;;;;;5115159;28;20459;-64
2024/01/30 12:43:47;;;;;;;25.60;11.60;;;10.80;98.00;;;;;;5113662;28;20453;-64
2024/01/30 12:46:14;;;;;;;25.27;11.30;;;10.80;98.00;;;;;;5114584;28;20998;-63
2024/01/30 12:48:42;;;;;;;30.23;11.93;;;10.90;98.00;;;;;;5114666;28;20465;-64
2024/01/30 12:51:10;;;;;;;29.13;12.10;;;10.90;98.00;;;;;;5114559;28;20481;-64
2024/01/30 12:53:37;;;;;;;25.23;11.53;;;11.00;98.00;;;;;;5114948;28;20454;-63
2024/01/30 12:56:04;;;;;;;27.20;11.50;;;11.10;98.00;;;;;;5114708;28;20449;-63